Moore, Texas
Current Conditions -  °F | °C
As of 10:35 PM on Saturday 20 Dec 2014 (Local Time) from KCVB Reporting Station
Overcast Overcast  
Wind Chill: 11°   Ceiling: 2200
Heat Index: 11°   Visibility: 7mi
Dew Point:   Wind: 0mph
Humidity: 73%   Direction: NA
Pressure: 30.2"   Gusts: NA
Location:  29.06°N, 99.01°W
Report Text: KCVB 210435Z AUTO 00000KT 7SM OVC022 11/07 A3020 RMK AO2 T01120065
Loading
Personal Weather Stations






























Interactive Weather Map New forecast layout! Learn more

10-Day Weather Forecast

Advertisements
Track Severe Weather on mobile